Terminal Aerodrome Forecast
Issued by NWS

Home | Current Version | Previous Version | Text Only | Print | Product List | Glossary On
Versions: 1 2 3 4 5 6 7 8 9 10 11 12
000
FTUS45 KVEF 190500
TAFBIH
TAF
KBIH 190520Z 1906/2006 34009KT P6SM SCT100 SCT150
     FM191900 16009KT P6SM SCT100 SCT150
     FM192200 16009KT P6SM VCSH SCT100 BKN150
     FM200200 35008KT P6SM SCT100=

USA.gov is the U.S. government's official web portal to all federal, state and local government web resources and services.